Time;durP1;ratioP1;P1;durP2;ratioP2;P2;SDS_P1;SDS_P2;PMS_P1;PMS_P2;Temp;Humidity;BMP_temperature;BMP_pressure;BME280_temperature;BME280_humidity;BME280_pressure;Samples;Min_cycle;Max_cycle;Signal;HPM_P1;HPM_P2
2022/11/17 00:00:05;;;;;;;38.17;23.27;;;4.50;99.90;;;;;;5053874;28;20198;-75
2022/11/17 00:02:32;;;;;;;36.53;23.17;;;4.50;99.90;;;;;;5053833;28;20201;-74
2022/11/17 00:04:58;;;;;;;34.27;22.43;;;4.70;99.90;;;;;;5053567;28;20200;-74
2022/11/17 00:07:26;;;;;;;35.27;23.17;;;4.70;99.90;;;;;;5053287;28;20229;-74
2022/11/17 00:09:53;;;;;;;33.13;22.10;;;4.70;99.90;;;;;;5053652;28;20205;-74
2022/11/17 00:15:05;;;;;;;35.80;21.80;;;4.70;99.90;;;;;;5053543;28;20258;-74
2022/11/17 00:17:31;;;;;;;37.20;22.87;;;4.70;99.90;;;;;;5053433;28;20256;-74
2022/11/17 00:22:44;;;;;;;33.73;22.10;;;4.80;99.90;;;;;;5053431;28;20204;-74
2022/11/17 00:25:10;;;;;;;32.47;22.70;;;4.80;99.90;;;;;;5053237;28;20197;-74
2022/11/17 00:27:37;;;;;;;31.00;21.23;;;4.80;99.90;;;;;;5053092;28;20727;-74
2022/11/17 00:30:05;;;;;;;30.37;21.33;;;4.80;99.90;;;;;;5053073;28;20197;-74
2022/11/17 00:35:16;;;;;;;34.90;21.20;;;4.80;99.90;;;;;;5053081;28;20594;-74
2022/11/17 00:40:25;;;;;;;34.57;21.40;;;4.90;99.90;;;;;;5052521;28;20189;-74
2022/11/17 00:42:51;;;;;;;34.47;22.67;;;4.90;99.90;;;;;;5052746;28;20205;-73
2022/11/17 00:45:18;;;;;;;35.13;22.00;;;4.90;99.90;;;;;;5053034;28;20627;-74
2022/11/17 00:47:45;;;;;;;33.53;21.83;;;4.90;99.90;;;;;;5052913;28;20205;-74
2022/11/17 00:50:11;;;;;;;29.80;20.97;;;5.00;99.90;;;;;;5052902;28;20263;-74
2022/11/17 00:52:38;;;;;;;36.43;22.00;;;5.00;99.90;;;;;;5052867;28;20726;-74
2022/11/17 00:55:08;;;;;;;37.57;23.47;;;5.10;99.90;;;;;;5052740;28;20201;-75
2022/11/17 00:57:34;;;;;;;38.47;23.43;;;5.10;99.90;;;;;;5052812;28;20194;-73
2022/11/17 01:00:01;;;;;;;41.83;24.83;;;5.20;99.90;;;;;;5052764;28;20202;-74
2022/11/17 01:02:27;;;;;;;46.20;24.20;;;5.30;99.90;;;;;;5052620;28;20202;-74
2022/11/17 01:04:54;;;;;;;41.13;24.70;;;5.30;99.90;;;;;;5052758;28;20232;-74
2022/11/17 01:07:21;;;;;;;45.57;25.27;;;5.40;99.90;;;;;;5052508;28;20280;-75
2022/11/17 01:09:48;;;;;;;45.00;25.97;;;5.40;99.90;;;;;;5052674;28;20226;-75
2022/11/17 01:12:16;;;;;;;47.23;27.20;;;5.40;99.90;;;;;;5052748;28;20229;-73
2022/11/17 01:14:42;;;;;;;46.23;27.57;;;5.50;99.90;;;;;;5052659;28;20202;-73
2022/11/17 01:17:09;;;;;;;48.07;27.37;;;5.50;99.90;;;;;;5052853;28;20255;-75
2022/11/17 01:19:36;;;;;;;47.47;26.07;;;5.50;99.90;;;;;;5052523;28;20205;-75
2022/11/17 01:22:02;;;;;;;45.90;27.43;;;5.40;99.90;;;;;;5052366;28;20197;-73
2022/11/17 01:24:29;;;;;;;51.87;27.73;;;5.50;99.90;;;;;;5052341;28;20201;-74
2022/11/17 01:26:56;;;;;;;45.93;27.03;;;5.50;99.90;;;;;;5052628;28;20193;-74
2022/11/17 01:29:24;;;;;;;51.97;27.40;;;5.40;99.90;;;;;;5052585;28;20259;-75
2022/11/17 01:31:52;;;;;;;51.37;25.90;;;5.50;99.90;;;;;;5053790;28;20278;-74
2022/11/17 01:34:19;;;;;;;46.80;28.17;;;5.50;99.90;;;;;;5056408;28;20202;-74
2022/11/17 01:39:31;;;;;;;41.63;24.10;;;5.40;99.90;;;;;;5056358;28;20600;-74
2022/11/17 01:42:02;;;;;;;44.87;25.00;;;5.40;99.90;;;;;;5056416;28;20259;-75
2022/11/17 01:44:53;;;;;;;43.53;25.47;;;5.40;99.90;;;;;;5056433;28;20189;-74
2022/11/17 01:47:23;;;;;;;47.50;26.90;;;5.40;99.90;;;;;;5056082;28;20197;-74
2022/11/17 01:49:54;;;;;;;54.50;28.87;;;5.40;99.90;;;;;;5056028;28;20653;-74
2022/11/17 01:52:21;;;;;;;49.03;28.43;;;5.50;99.90;;;;;;5056101;28;20290;-75
2022/11/17 01:54:49;;;;;;;53.70;29.03;;;5.50;99.90;;;;;;5056145;28;20328;-75
2022/11/17 01:57:24;;;;;;;50.97;29.30;;;5.50;99.90;;;;;;5056017;28;20201;-74
2022/11/17 01:59:56;;;;;;;59.23;29.83;;;5.50;99.90;;;;;;5056113;28;20200;-74
2022/11/17 02:02:23;;;;;;;55.17;30.07;;;5.60;99.90;;;;;;5056053;28;20194;-75
2022/11/17 02:04:58;;;;;;;57.77;31.63;;;5.60;99.90;;;;;;5055742;28;20706;-74
2022/11/17 02:07:27;;;;;;;58.43;32.83;;;5.70;99.90;;;;;;5055852;28;20228;-74
2022/11/17 02:09:55;;;;;;;62.10;31.70;;;5.70;99.90;;;;;;5055983;28;20240;-75
2022/11/17 02:12:24;;;;;;;54.13;29.93;;;5.70;99.90;;;;;;5055580;28;20230;-75
2022/11/17 02:14:53;;;;;;;53.30;29.83;;;5.70;99.90;;;;;;5055603;28;20251;-75
2022/11/17 02:17:22;;;;;;;55.30;30.07;;;5.60;99.90;;;;;;5055739;28;20232;-75
2022/11/17 02:19:56;;;;;;;49.83;29.33;;;5.60;99.90;;;;;;5055592;28;20204;-75
2022/11/17 02:22:45;;;;;;;45.63;27.63;;;5.60;99.90;;;;;;5055617;28;20255;-74
2022/11/17 02:25:26;;;;;;;46.00;28.37;;;5.50;99.90;;;;;;5055437;28;20202;-74
2022/11/17 02:28:12;;;;;;;48.97;28.47;;;5.50;99.90;;;;;;5055647;28;20292;-75
2022/11/17 02:30:47;;;;;;;48.93;28.87;;;5.40;99.90;;;;;;5055417;28;20198;-75
2022/11/17 02:33:24;;;;;;;48.23;29.27;;;5.50;99.90;;;;;;5055168;28;20270;-74
2022/11/17 02:36:00;;;;;;;53.93;29.67;;;5.50;99.90;;;;;;5055170;28;20276;-75
2022/11/17 02:38:32;;;;;;;53.10;29.77;;;5.50;99.90;;;;;;5055299;28;20198;-75
2022/11/17 02:41:04;;;;;;;46.87;29.03;;;5.50;99.90;;;;;;5055259;28;20205;-75
2022/11/17 02:46:23;;;;;;;49.17;29.50;;;5.50;99.90;;;;;;5055024;28;20244;-75
2022/11/17 02:48:54;;;;;;;53.10;30.60;;;5.50;99.90;;;;;;5055068;28;20252;-74
2022/11/17 02:51:23;;;;;;;59.53;31.87;;;5.50;99.90;;;;;;5054989;28;20239;-74
2022/11/17 02:53:52;;;;;;;59.23;33.07;;;5.50;99.90;;;;;;5054954;28;20240;-75
2022/11/17 02:56:19;;;;;;;58.13;32.90;;;5.50;99.90;;;;;;5054885;28;20657;-74
2022/11/17 02:58:50;;;;;;;61.40;32.47;;;5.50;99.90;;;;;;5054986;28;20197;-74
2022/11/17 03:01:36;;;;;;;56.47;32.90;;;5.60;99.90;;;;;;5054868;28;20205;-74
2022/11/17 03:04:20;;;;;;;63.07;34.07;;;5.60;99.90;;;;;;5054692;28;20557;-74
2022/11/17 03:06:54;;;;;;;63.40;34.23;;;5.50;99.90;;;;;;5054420;28;20202;-75
2022/11/17 03:09:28;;;;;;;57.53;33.47;;;5.60;99.90;;;;;;5054803;28;20197;-74
2022/11/17 03:12:06;;;;;;;61.43;32.97;;;5.60;99.90;;;;;;5054611;28;20225;-74
2022/11/17 03:14:42;;;;;;;59.10;31.83;;;5.60;99.90;;;;;;5054816;28;20208;-74
2022/11/17 03:17:16;;;;;;;63.13;34.23;;;5.60;99.90;;;;;;5054621;28;20661;-75
2022/11/17 03:19:46;;;;;;;60.00;31.73;;;5.60;99.90;;;;;;5054715;28;20293;-75
2022/11/17 03:22:22;;;;;;;61.93;32.37;;;5.60;99.90;;;;;;5054444;28;20205;-75
2022/11/17 03:24:53;;;;;;;56.07;31.80;;;5.70;99.90;;;;;;5054312;28;20197;-74
2022/11/17 03:27:24;;;;;;;61.43;32.03;;;5.70;99.90;;;;;;5054227;28;20197;-75
2022/11/17 03:29:57;;;;;;;65.33;33.40;;;5.70;99.90;;;;;;5054437;28;20197;-73
2022/11/17 03:32:26;;;;;;;62.87;32.93;;;5.80;99.90;;;;;;5054270;28;20229;-75
2022/11/17 03:34:57;;;;;;;61.83;32.33;;;5.80;99.90;;;;;;5054250;28;20244;-74
2022/11/17 03:37:25;;;;;;;61.60;32.93;;;5.80;99.90;;;;;;5054174;28;20209;-74
2022/11/17 03:39:54;;;;;;;59.83;31.00;;;5.90;99.90;;;;;;5054038;28;20198;-74
2022/11/17 03:42:25;;;;;;;59.53;30.57;;;5.90;99.90;;;;;;5054120;28;20197;-74
2022/11/17 03:44:58;;;;;;;59.17;30.37;;;5.90;99.90;;;;;;5054116;28;20197;-74
2022/11/17 03:47:27;;;;;;;64.47;31.13;;;5.90;99.90;;;;;;5054049;28;20198;-75
2022/11/17 03:49:59;;;;;;;63.57;29.17;;;5.90;99.90;;;;;;5053840;28;20657;-75
2022/11/17 03:52:28;;;;;;;58.53;28.70;;;6.00;99.90;;;;;;5053669;28;20226;-75
2022/11/17 03:54:55;;;;;;;54.93;28.93;;;5.90;99.90;;;;;;5053040;28;20213;-75
2022/11/17 03:57:31;;;;;;;50.83;27.57;;;6.00;99.90;;;;;;5053866;28;20259;-75
2022/11/17 04:00:02;;;;;;;59.83;28.93;;;6.00;99.90;;;;;;5053715;28;20197;-75
2022/11/17 04:02:29;;;;;;;55.17;28.63;;;6.00;99.90;;;;;;5053641;28;20216;-75
2022/11/17 04:05:05;;;;;;;65.33;28.67;;;6.10;99.90;;;;;;5053468;28;20201;-75
2022/11/17 04:07:31;;;;;;;55.83;27.97;;;6.00;99.90;;;;;;5053516;28;20225;-75
2022/11/17 04:09:58;;;;;;;57.97;28.73;;;6.00;99.90;;;;;;5053598;28;20352;-75
2022/11/17 04:17:56;;;;;;;59.57;28.03;;;5.80;99.90;;;;;;5053452;28;20212;-74
2022/11/17 04:20:23;;;;;;;57.73;27.63;;;5.70;99.90;;;;;;5053466;28;20205;-74
2022/11/17 04:23:05;;;;;;;53.57;27.17;;;5.70;99.90;;;;;;5053126;28;20198;-75
2022/11/17 04:28:37;;;;;;;53.63;26.70;;;5.60;99.90;;;;;;4991858;28;20198;-74
2022/11/17 04:31:07;;;;;;;59.13;26.83;;;5.60;99.90;;;;;;4991676;28;20206;-75
2022/11/17 04:33:34;;;;;;;53.57;27.00;;;5.50;99.90;;;;;;5021669;28;20226;-74
2022/11/17 04:36:01;;;;;;;52.83;27.53;;;5.50;99.90;;;;;;5053031;28;20198;-74
2022/11/17 04:38:28;;;;;;;53.40;25.97;;;5.50;99.90;;;;;;5052982;28;20209;-75
2022/11/17 04:43:45;;;;;;;57.80;28.17;;;5.40;99.90;;;;;;5053171;28;20201;-74
2022/11/17 04:46:13;;;;;;;61.23;30.17;;;5.50;99.90;;;;;;5052958;28;20293;-74
2022/11/17 04:48:40;;;;;;;61.97;28.37;;;5.40;99.90;;;;;;5052869;28;20256;-74
2022/11/17 04:51:07;;;;;;;55.60;28.57;;;5.40;99.90;;;;;;5053251;28;20208;-74
2022/11/17 04:53:33;;;;;;;59.03;28.03;;;5.50;99.90;;;;;;5052883;28;20270;-74
2022/11/17 04:56:00;;;;;;;50.20;25.97;;;5.60;99.90;;;;;;5052844;28;20194;-74
2022/11/17 04:58:27;;;;;;;54.33;27.27;;;5.80;99.90;;;;;;5052802;28;20194;-74
2022/11/17 05:00:54;;;;;;;46.40;25.97;;;5.90;99.90;;;;;;5052683;28;20252;-74
2022/11/17 05:03:22;;;;;;;48.67;25.93;;;6.00;99.90;;;;;;5052549;28;20224;-74
2022/11/17 05:05:49;;;;;;;48.23;25.87;;;6.00;99.90;;;;;;5052599;28;20205;-74
2022/11/17 05:08:15;;;;;;;50.23;27.20;;;6.00;99.90;;;;;;5052627;28;20260;-74
2022/11/17 05:13:26;;;;;;;45.03;25.73;;;6.10;99.90;;;;;;5052580;28;20232;-74
2022/11/17 05:18:40;;;;;;;51.67;27.10;;;6.10;99.90;;;;;;5052610;28;20332;-73
2022/11/17 05:21:08;;;;;;;45.30;26.83;;;6.10;99.90;;;;;;5052558;28;20255;-73
2022/11/17 05:23:52;;;;;;;42.83;25.97;;;6.20;99.90;;;;;;5052564;28;20202;-73
2022/11/17 05:26:20;;;;;;;40.57;24.53;;;6.20;99.90;;;;;;5052490;28;20564;-75
2022/11/17 05:28:47;;;;;;;42.63;24.10;;;6.20;99.90;;;;;;5052675;28;20193;-75
2022/11/17 05:31:14;;;;;;;38.13;24.03;;;6.30;99.90;;;;;;5052546;28;20197;-74
2022/11/17 05:33:42;;;;;;;44.87;26.03;;;6.30;99.90;;;;;;5052371;28;20229;-75
2022/11/17 05:36:10;;;;;;;42.73;24.20;;;6.20;99.90;;;;;;5052344;28;20197;-72
2022/11/17 05:38:37;;;;;;;35.97;22.50;;;6.30;99.90;;;;;;5052364;28;20842;-74
2022/11/17 05:41:04;;;;;;;32.80;21.13;;;6.30;99.90;;;;;;5052508;28;20208;-75
2022/11/17 05:43:30;;;;;;;35.70;23.90;;;6.30;99.90;;;;;;5052381;28;20267;-74
2022/11/17 05:45:57;;;;;;;33.57;22.93;;;6.30;99.90;;;;;;5052401;28;20204;-75
2022/11/17 05:48:24;;;;;;;32.90;22.17;;;6.40;99.90;;;;;;5052385;28;20198;-75
2022/11/17 05:50:53;;;;;;;27.07;19.20;;;6.40;99.90;;;;;;5052322;28;20201;-74
2022/11/17 05:53:20;;;;;;;30.30;20.33;;;6.40;99.90;;;;;;5052280;28;20574;-75
2022/11/17 05:55:47;;;;;;;26.87;17.73;;;6.40;99.90;;;;;;5052806;28;20209;-74
2022/11/17 05:58:20;;;;;;;26.73;17.70;;;6.40;99.90;;;;;;5052632;28;20198;-74
2022/11/17 06:00:47;;;;;;;24.23;18.20;;;6.40;99.90;;;;;;5052288;28;20263;-74
2022/11/17 06:03:17;;;;;;;29.17;17.80;;;6.40;99.90;;;;;;5052148;28;20197;-74
2022/11/17 06:05:44;;;;;;;24.90;18.07;;;6.40;99.90;;;;;;5052061;28;20247;-73
2022/11/17 06:08:12;;;;;;;25.27;18.07;;;6.40;99.90;;;;;;5051856;28;20234;-73
2022/11/17 06:10:38;;;;;;;27.57;18.57;;;6.30;99.90;;;;;;5052010;28;20202;-74
2022/11/17 06:13:05;;;;;;;26.37;17.90;;;6.30;99.90;;;;;;5052034;28;20233;-73
2022/11/17 06:15:33;;;;;;;24.80;18.23;;;6.40;99.90;;;;;;5051960;28;20209;-72
2022/11/17 06:18:04;;;;;;;27.17;18.27;;;6.30;99.90;;;;;;5053505;28;20259;-74
2022/11/17 06:20:34;;;;;;;31.23;19.10;;;6.30;99.90;;;;;;5055808;28;20205;-72
2022/11/17 06:23:04;;;;;;;28.47;19.13;;;6.20;99.90;;;;;;5055626;28;20201;-72
2022/11/17 06:25:34;;;;;;;30.13;19.00;;;6.20;99.90;;;;;;5055515;28;20201;-72
2022/11/17 06:28:04;;;;;;;25.70;18.73;;;6.20;99.90;;;;;;5055379;28;20198;-72
2022/11/17 06:30:31;;;;;;;26.47;17.80;;;6.20;99.90;;;;;;5055316;28;20561;-73
2022/11/17 06:32:59;;;;;;;29.80;20.17;;;6.20;99.90;;;;;;5055185;28;20273;-72
2022/11/17 06:35:32;;;;;;;31.13;20.47;;;6.20;99.90;;;;;;5055386;28;20198;-72
2022/11/17 06:37:58;;;;;;;27.97;20.03;;;6.20;99.90;;;;;;5055582;28;20201;-72
2022/11/17 06:40:25;;;;;;;29.90;19.53;;;6.20;99.90;;;;;;5055293;28;20259;-72
2022/11/17 06:43:08;;;;;;;27.97;19.43;;;6.20;99.90;;;;;;5055193;28;20657;-73
2022/11/17 06:45:36;;;;;;;30.63;18.93;;;6.20;99.90;;;;;;5055051;28;20649;-73
2022/11/17 06:48:03;;;;;;;26.60;18.23;;;6.30;99.90;;;;;;5054987;28;20197;-72
2022/11/17 06:50:30;;;;;;;24.93;18.60;;;6.30;99.90;;;;;;5054998;28;20197;-72
2022/11/17 06:52:57;;;;;;;26.23;18.70;;;6.30;99.90;;;;;;5054655;28;20291;-72
2022/11/17 06:55:24;;;;;;;28.97;18.63;;;6.30;99.90;;;;;;5054816;28;20552;-72
2022/11/17 06:57:57;;;;;;;26.13;17.67;;;6.30;99.90;;;;;;5054643;28;20557;-72
2022/11/17 07:00:24;;;;;;;27.67;18.50;;;6.40;99.90;;;;;;5054923;28;20198;-72
2022/11/17 07:02:51;;;;;;;25.17;17.00;;;6.40;99.90;;;;;;5055019;28;20259;-72
2022/11/17 07:05:18;;;;;;;24.83;16.20;;;6.40;99.90;;;;;;5054638;28;20233;-72
2022/11/17 07:07:44;;;;;;;26.73;16.70;;;6.40;99.90;;;;;;5054520;28;20789;-72
2022/11/17 07:10:11;;;;;;;22.73;16.47;;;6.50;99.90;;;;;;5054581;28;20205;-72
2022/11/17 07:12:38;;;;;;;22.73;15.80;;;6.40;99.90;;;;;;5055463;28;20227;-73
2022/11/17 07:15:07;;;;;;;22.03;15.83;;;6.50;99.90;;;;;;5055910;28;20529;-73
2022/11/17 07:17:34;;;;;;;23.40;16.43;;;6.50;99.90;;;;;;5054970;28;20194;-72
2022/11/17 07:20:00;;;;;;;20.77;15.73;;;6.50;99.90;;;;;;5054578;28;20236;-72
2022/11/17 07:22:27;;;;;;;22.17;15.90;;;6.60;99.90;;;;;;5054476;28;20198;-72
2022/11/17 07:24:53;;;;;;;21.33;15.13;;;6.60;99.90;;;;;;5054206;28;20209;-72
2022/11/17 07:27:20;;;;;;;21.80;15.43;;;6.60;99.90;;;;;;5054503;28;20209;-72
2022/11/17 07:29:47;;;;;;;22.57;15.57;;;6.60;99.90;;;;;;5054339;28;20223;-72
2022/11/17 07:32:15;;;;;;;20.77;15.63;;;6.60;99.90;;;;;;5054401;28;20263;-71
2022/11/17 07:34:41;;;;;;;20.43;14.97;;;6.70;99.90;;;;;;5054022;28;20248;-72
2022/11/17 07:37:08;;;;;;;22.93;15.53;;;6.70;99.90;;;;;;5054066;28;20198;-71
2022/11/17 07:39:35;;;;;;;21.20;14.87;;;6.70;99.90;;;;;;5053988;28;20711;-72
2022/11/17 07:42:02;;;;;;;20.90;15.30;;;6.70;99.90;;;;;;5054196;28;20395;-71
2022/11/17 07:44:29;;;;;;;20.60;14.93;;;6.70;99.90;;;;;;5054176;28;20256;-72
2022/11/17 07:46:55;;;;;;;22.63;15.23;;;6.70;99.90;;;;;;5054085;28;20205;-72
2022/11/17 07:49:24;;;;;;;22.23;15.20;;;6.70;99.90;;;;;;5053910;28;20198;-71
2022/11/17 07:51:50;;;;;;;19.43;14.73;;;6.70;99.90;;;;;;5053706;28;20680;-72
2022/11/17 07:54:17;;;;;;;19.03;15.53;;;6.70;99.90;;;;;;5053943;28;20232;-72
2022/11/17 07:56:44;;;;;;;18.67;15.57;;;6.70;99.90;;;;;;5053736;28;20698;-72
2022/11/17 07:59:11;;;;;;;20.23;14.93;;;6.80;99.90;;;;;;5053592;28;20553;-72
2022/11/17 08:01:38;;;;;;;17.23;14.30;;;6.80;99.90;;;;;;5053852;28;20519;-72
2022/11/17 08:04:05;;;;;;;18.83;14.07;;;6.80;99.90;;;;;;5053568;28;20197;-73
2022/11/17 08:06:33;;;;;;;20.10;15.00;;;6.90;99.90;;;;;;5053384;28;20202;-73
2022/11/17 08:09:00;;;;;;;16.53;14.13;;;6.90;99.90;;;;;;5053753;28;20249;-70
2022/11/17 08:11:27;;;;;;;16.43;13.60;;;7.00;99.90;;;;;;5053528;28;20198;-71
2022/11/17 08:13:54;;;;;;;15.83;13.57;;;7.10;99.90;;;;;;5053248;28;20710;-72
2022/11/17 08:16:20;;;;;;;18.63;14.40;;;7.20;99.90;;;;;;5053647;28;20264;-72
2022/11/17 08:18:48;;;;;;;15.27;13.20;;;7.50;99.90;;;;;;5053285;28;20205;-71
2022/11/17 08:21:15;;;;;;;17.13;12.13;;;7.70;99.90;;;;;;5053269;28;20198;-71
2022/11/17 08:23:43;;;;;;;13.10;11.70;;;7.80;99.90;;;;;;5053439;28;20250;-71
2022/11/17 08:26:11;;;;;;;12.23;11.03;;;7.80;99.90;;;;;;5053318;28;20197;-71
2022/11/17 08:28:38;;;;;;;10.80;9.60;;;7.80;99.90;;;;;;5053306;28;20197;-71
2022/11/17 08:31:06;;;;;;;11.60;9.37;;;7.80;99.90;;;;;;5053198;28;20197;-71
2022/11/17 08:33:33;;;;;;;10.67;9.03;;;7.90;99.90;;;;;;5053064;28;20630;-71
2022/11/17 08:36:01;;;;;;;9.17;7.83;;;8.00;99.90;;;;;;5053258;28;20205;-71
2022/11/17 08:38:28;;;;;;;8.07;7.20;;;8.00;99.90;;;;;;5053223;28;20224;-71
2022/11/17 08:40:56;;;;;;;8.77;7.37;;;8.00;99.90;;;;;;5052367;28;20208;-71
2022/11/17 08:43:24;;;;;;;9.10;7.13;;;8.00;99.90;;;;;;5052879;28;20209;-71
2022/11/17 08:45:50;;;;;;;7.43;6.40;;;8.00;99.90;;;;;;5052835;28;20263;-71
2022/11/17 08:48:17;;;;;;;7.37;6.67;;;8.10;99.90;;;;;;5052634;28;20657;-72
2022/11/17 08:50:44;;;;;;;8.33;6.37;;;8.00;99.90;;;;;;5053005;28;20303;-71
2022/11/17 08:53:16;;;;;;;7.53;6.30;;;8.10;99.90;;;;;;5052745;28;20258;-71
2022/11/17 08:55:43;;;;;;;6.87;6.07;;;8.20;99.90;;;;;;5052814;28;20197;-71
2022/11/17 08:58:11;;;;;;;7.73;5.73;;;8.30;99.90;;;;;;5052750;28;20242;-73
2022/11/17 09:00:38;;;;;;;6.30;5.53;;;8.20;99.90;;;;;;5052653;28;20201;-73
2022/11/17 09:03:06;;;;;;;6.33;5.73;;;8.20;99.90;;;;;;5052895;28;20200;-73
2022/11/17 09:05:34;;;;;;;6.70;5.80;;;8.20;99.90;;;;;;5052791;28;20240;-72
2022/11/17 09:08:01;;;;;;;6.40;5.60;;;8.20;99.90;;;;;;5052507;28;20654;-72
2022/11/17 09:10:27;;;;;;;8.07;5.87;;;8.20;99.90;;;;;;5052656;28;20197;-73
2022/11/17 09:12:55;;;;;;;5.87;5.37;;;8.20;99.90;;;;;;5052639;28;20198;-72
2022/11/17 09:15:24;;;;;;;6.70;5.70;;;8.20;99.90;;;;;;5052952;28;20260;-72
2022/11/17 09:17:50;;;;;;;7.27;5.07;;;8.30;99.90;;;;;;5052795;28;20208;-71
2022/11/17 09:20:19;;;;;;;6.63;5.70;;;8.40;99.90;;;;;;5052636;28;20271;-71
2022/11/17 09:22:46;;;;;;;6.73;5.20;;;8.50;99.90;;;;;;5052690;28;20247;-71
2022/11/17 09:25:14;;;;;;;6.10;5.47;;;8.60;99.90;;;;;;5052619;28;20255;-71
2022/11/17 09:27:41;;;;;;;7.20;4.80;;;8.70;99.90;;;;;;5052495;28;20201;-71
2022/11/17 09:30:08;;;;;;;5.30;4.80;;;8.80;99.90;;;;;;5052655;28;20240;-71
2022/11/17 09:32:36;;;;;;;5.30;4.80;;;8.80;99.90;;;;;;5052517;28;20198;-71
2022/11/17 09:35:05;;;;;;;5.93;5.10;;;8.90;99.90;;;;;;5052232;28;20221;-71
2022/11/17 09:37:32;;;;;;;6.07;4.50;;;8.90;99.90;;;;;;5052362;28;20526;-71
2022/11/17 09:39:59;;;;;;;7.07;4.30;;;8.90;99.90;;;;;;5052174;28;20206;-71
2022/11/17 09:42:27;;;;;;;5.77;4.50;;;9.00;99.90;;;;;;5052284;28;20206;-71
2022/11/17 09:45:02;;;;;;;6.83;4.93;;;9.10;99.90;;;;;;5052445;28;20194;-71
2022/11/17 09:47:36;;;;;;;4.87;4.37;;;9.10;99.90;;;;;;5052398;28;20197;-72
2022/11/17 09:50:12;;;;;;;4.90;4.40;;;9.20;99.90;;;;;;5052230;28;20198;-72
2022/11/17 09:52:50;;;;;;;4.40;4.00;;;9.20;99.90;;;;;;5053268;28;20201;-72
2022/11/17 09:55:24;;;;;;;5.17;4.67;;;9.30;99.90;;;;;;5056250;28;20275;-72
2022/11/17 09:57:59;;;;;;;4.70;4.30;;;9.50;99.90;;;;;;5056292;28;20202;-72
2022/11/17 10:00:26;;;;;;;4.80;4.20;;;9.60;99.90;;;;;;5056089;28;20251;-72
2022/11/17 10:02:54;;;;;;;5.23;4.10;;;9.40;99.90;;;;;;5056006;28;20202;-72
2022/11/17 10:05:28;;;;;;;4.17;3.77;;;9.60;99.90;;;;;;5055745;28;20198;-73
2022/11/17 10:07:58;;;;;;;4.83;4.33;;;9.50;99.90;;;;;;5055801;28;20229;-73
2022/11/17 10:10:34;;;;;;;5.27;3.83;;;9.40;99.90;;;;;;5055876;28;20205;-73
2022/11/17 10:13:04;;;;;;;4.93;4.10;;;9.10;99.90;;;;;;5055672;28;20675;-73
2022/11/17 10:15:41;;;;;;;5.30;4.40;;;9.00;99.90;;;;;;5055554;28;20226;-73
2022/11/17 10:18:12;;;;;;;6.83;4.40;;;9.00;99.90;;;;;;5055571;28;20526;-73
2022/11/17 10:20:40;;;;;;;4.40;3.97;;;9.00;99.90;;;;;;5055762;28;20197;-73
2022/11/17 10:23:10;;;;;;;8.20;5.00;;;8.80;99.90;;;;;;5055657;28;20204;-73
2022/11/17 10:25:38;;;;;;;5.37;4.67;;;8.70;99.90;;;;;;5055443;28;20653;-73
2022/11/17 10:28:22;;;;;;;5.23;4.73;;;8.70;99.90;;;;;;5055376;28;20212;-73
2022/11/17 10:30:54;;;;;;;4.70;4.30;;;8.70;99.90;;;;;;5055611;28;20201;-73
2022/11/17 10:33:34;;;;;;;5.47;4.97;;;8.60;99.90;;;;;;5055624;28;20229;-73
2022/11/17 10:36:05;;;;;;;6.47;4.93;;;8.60;99.90;;;;;;5055308;28;20223;-73
2022/11/17 10:38:33;;;;;;;5.53;4.80;;;8.70;99.90;;;;;;5055163;28;20197;-73
2022/11/17 10:41:01;;;;;;;5.90;5.27;;;8.60;99.90;;;;;;5055152;28;20226;-73
2022/11/17 10:43:31;;;;;;;6.77;5.50;;;8.50;99.90;;;;;;5055392;28;20243;-72
2022/11/17 10:46:00;;;;;;;7.87;5.60;;;8.50;99.90;;;;;;5055273;28;20206;-72
2022/11/17 10:48:29;;;;;;;9.63;6.00;;;8.60;99.90;;;;;;5055240;28;20255;-72
2022/11/17 10:50:57;;;;;;;7.17;6.47;;;8.70;99.90;;;;;;5055129;28;20731;-72
2022/11/17 10:53:32;;;;;;;6.20;5.57;;;9.60;99.90;;;;;;5055035;28;20202;-72
2022/11/17 10:56:04;;;;;;;7.20;5.97;;;9.20;99.90;;;;;;5055078;28;20243;-72
2022/11/17 10:58:32;;;;;;;7.90;6.10;;;9.00;99.90;;;;;;5054999;28;20244;-72
2022/11/17 11:01:00;;;;;;;7.17;5.73;;;8.80;99.90;;;;;;5054940;28;20202;-72
2022/11/17 11:03:29;;;;;;;6.20;5.53;;;8.80;99.90;;;;;;5054489;28;20202;-72
2022/11/17 11:06:20;;;;;;;7.50;5.33;;;8.90;99.90;;;;;;5054637;28;20216;-72
2022/11/17 11:08:53;;;;;;;8.50;6.03;;;9.10;99.90;;;;;;5054735;28;20237;-72
2022/11/17 11:11:31;;;;;;;7.43;5.90;;;9.20;99.90;;;;;;5054920;28;20251;-72
2022/11/17 11:14:02;;;;;;;6.23;5.33;;;9.50;99.90;;;;;;5054498;28;20197;-72
2022/11/17 11:16:29;;;;;;;5.40;4.70;;;9.70;99.90;;;;;;5054370;28;20682;-72
2022/11/17 11:18:57;;;;;;;5.77;5.17;;;9.80;99.90;;;;;;5054618;28;20197;-72
2022/11/17 11:21:44;;;;;;;7.43;5.23;;;10.00;99.90;;;;;;5054526;28;20266;-73
2022/11/17 11:24:19;;;;;;;5.03;4.53;;;10.20;99.90;;;;;;5054291;28;20652;-74
2022/11/17 11:26:56;;;;;;;5.20;4.70;;;10.30;99.90;;;;;;5054116;28;20263;-73
2022/11/17 11:29:30;;;;;;;7.27;5.40;;;10.10;99.90;;;;;;5054464;28;20201;-73
2022/11/17 11:32:11;;;;;;;4.90;3.90;;;10.30;99.90;;;;;;5054485;28;20205;-73
2022/11/17 11:34:58;;;;;;;4.63;3.90;;;12.10;99.90;;;;;;5054108;28;20557;-73
2022/11/17 11:37:35;;;;;;;3.13;2.80;;;15.40;99.90;;;;;;5054287;28;20247;-74
2022/11/17 11:40:14;;;;;;;4.63;3.20;;;16.50;99.90;;;;;;5053912;28;20649;-74
2022/11/17 11:42:52;;;;;;;3.45;3.13;;;17.60;99.90;;;;;;5054106;28;20291;-74
2022/11/17 11:45:24;;;;;;;6.50;3.38;;;18.50;99.90;;;;;;5053865;28;20202;-74
2022/11/17 11:48:10;;;;;;;3.13;2.83;;;18.00;99.90;;;;;;5053980;28;20205;-74
2022/11/17 11:50:50;;;;;;;3.00;2.63;;;18.60;99.90;;;;;;5039799;28;20228;-75
2022/11/17 11:53:24;;;;;;;3.88;2.80;;;18.20;99.90;;;;;;5053671;28;20202;-74
2022/11/17 11:56:03;;;;;;;3.05;2.40;;;18.30;99.90;;;;;;5053416;28;20679;-75
2022/11/17 11:58:30;;;;;;;3.00;2.58;;;19.70;99.90;;;;;;5053914;28;20202;-76
2022/11/17 12:01:04;;;;;;;3.53;2.35;;;18.80;99.90;;;;;;5053857;28;20682;-74
2022/11/17 12:03:35;;;;;;;4.63;2.45;;;16.70;99.90;;;;;;5053673;28;20272;-75
2022/11/17 12:09:01;;;;;;;3.92;2.50;;;14.80;99.90;;;;;;5052968;28;20233;-74
2022/11/17 12:14:18;;;;;;;4.97;3.00;;;14.30;99.90;;;;;;5053440;28;20205;-73
2022/11/17 12:16:47;;;;;;;3.20;2.70;;;13.50;99.90;;;;;;5052542;28;20247;-74
2022/11/17 12:19:49;;;;;;;4.07;2.37;;;13.50;99.90;;;;;;5053317;28;20202;-74
2022/11/17 12:22:43;;;;;;;3.47;2.43;;;14.10;99.90;;;;;;5039679;28;20287;-74
2022/11/17 12:25:17;;;;;;;4.20;2.70;;;13.60;99.90;;;;;;5053541;28;20228;-74
2022/11/17 12:27:48;;;;;;;4.03;2.70;;;13.90;99.90;;;;;;5053079;28;20740;-74
2022/11/17 12:30:53;;;;;;;5.67;2.93;;;13.00;99.90;;;;;;5053263;28;20255;-74
2022/11/17 12:33:20;;;;;;;3.80;2.70;;;12.60;99.90;;;;;;5053006;28;20198;-74
2022/11/17 12:36:24;;;;;;;6.70;3.17;;;12.20;99.90;;;;;;5053049;28;20588;-74
2022/11/17 12:38:51;;;;;;;4.00;2.60;;;12.20;99.90;;;;;;5053081;28;20201;-74
2022/11/17 12:41:51;;;;;;;4.17;2.70;;;11.90;99.90;;;;;;5052784;28;20194;-74
2022/11/17 12:44:54;;;;;;;6.20;2.30;;;11.90;99.90;;;;;;5053128;28;20198;-74
2022/11/17 12:47:22;;;;;;;5.23;2.47;;;11.90;99.90;;;;;;5052874;28;20193;-74
2022/11/17 12:50:28;;;;;;;4.83;2.00;;;12.20;99.90;;;;;;5052612;28;20251;-74
2022/11/17 12:53:25;;;;;;;6.47;2.47;;;12.10;99.90;;;;;;5052860;28;20232;-74
2022/11/17 12:56:17;;;;;;;3.87;2.07;;;12.00;99.90;;;;;;5018942;28;20295;-74
2022/11/17 12:58:56;;;;;;;3.40;1.90;;;12.10;99.90;;;;;;5052883;28;20202;-73
2022/11/17 13:01:31;;;;;;;4.77;1.67;;;12.10;99.90;;;;;;5052923;28;20194;-74
2022/11/17 13:04:02;;;;;;;3.23;1.93;;;12.20;99.90;;;;;;5052699;28;20247;-74
2022/11/17 13:06:28;;;;;;;4.13;1.83;;;13.10;99.90;;;;;;5052305;28;20564;-74
2022/11/17 13:08:56;;;;;;;3.10;1.47;;;13.50;99.90;;;;;;5052659;28;20228;-74
2022/11/17 13:11:23;;;;;;;3.63;1.40;;;14.90;99.90;;;;;;5052638;28;20198;-74
2022/11/17 13:14:05;;;;;;;2.80;1.50;;;18.00;99.90;;;;;;5052509;28;20252;-74
2022/11/17 13:16:35;;;;;;;3.10;1.45;;;18.40;99.90;;;;;;5052366;28;20241;-74
2022/11/17 13:19:01;;;;;;;2.38;1.40;;;17.10;99.90;;;;;;5052298;28;20201;-74
2022/11/17 13:21:31;;;;;;;4.15;1.63;;;17.40;99.90;;;;;;5052577;28;20205;-74
2022/11/17 13:23:59;;;;;;;4.07;1.48;;;18.90;99.90;;;;;;5052469;28;20197;-74
2022/11/17 13:26:30;;;;;;;4.78;1.83;;;16.80;99.90;;;;;;5053069;28;20207;-74
2022/11/17 13:29:05;;;;;;;5.40;1.55;;;14.80;99.90;;;;;;5056637;28;20201;-74
2022/11/17 13:31:34;;;;;;;6.57;1.70;;;13.50;99.90;;;;;;5056345;28;20250;-74
2022/11/17 13:34:05;;;;;;;4.37;1.80;;;13.40;99.90;;;;;;5056524;28;20232;-74
2022/11/17 13:36:32;;;;;;;2.37;1.40;;;15.40;99.90;;;;;;5056452;28;20225;-73
2022/11/17 13:39:00;;;;;;;2.90;1.50;;;15.20;99.90;;;;;;5056326;28;20683;-75